Aviation Digital Data Service (ADDS)

Output produced by METARs form (0523 UTC 01 November 2014)
found at http://aviationweather.gov/adds/metars/
 
KDAG 010450Z AUTO 32017KT 10SM CLR 18/08 A2973 RMK AO2 SLP051 T01780078
KDAG 312339Z 0100/0124 24008KT P6SM FEW120 BKN250 
     FM010200 24015G23KT P6SM FEW100 BKN250 
     FM011000 25013G20KT P6SM VCSH SCT050 BKN070 
     FM011600 25024G34KT P6SM SCT100 BKN200
       
KEDW 010507Z AUTO 26010G21KT 200V320 10SM FEW024 SCT055 BKN070 15/10 A2976 RMK AO2 WSHFT 06
TAF AMD KEDW 0102/0208 24018G23KT 9999 FEW050 BKN200 BKN250 510009 QNH2978INS 
     TEMPO 0102/0105 26020G35KT 520009 
     BECMG 0104/0105 20012G20KT 8000 -SHRA BKN020 OVC080 610802 510009 QNH2972INS 
     TEMPO 0105/0112 25025G35KT 520009 
     TEMPO 0112/0115 25025G35KT 520009 
     BECMG 0114/0115 25018G23KT 9999 VCSH SCT030 SCT080 BKN250 510009 QNH2990INS 
     TEMPO 0115/0117 25023G35KT 520009 
     BECMG 0117/0118 24020G25KT 9999 NSW FEW040 SCT150 SCT250 QNH2982INS 
     TEMPO 0118/0202 25025G35KT 520009 
     BECMG 0201/0202 25015G20KT 9999 FEW040 SCT120 510009 QNH2985INS TX17/0122Z TN11/0112Z AMD 010216 LAST NO AMDS AFT 0105 NEXT 0310
       
KVCV 010515Z AUTO 19026G36KT 1/2SM HZ BKN001 OVC010 14/08 A2980 RMK AO2
KONT 010453Z 26008KT 10SM FEW037 BKN046 OVC060 18/12 A2986 RMK AO2 SLP104 T01780122
KONT 010520Z 0106/0212 26007KT P6SM VCSH BKN020 
     FM010800 24007KT 6SM -SHRA BR SCT008 BKN015 
     FM011200 26010KT P6SM VCSH SCT015 BKN025 
     FM011800 27011KT P6SM SCT025 BKN050 
     FM020400 VRB05KT P6SM BKN040
       
KSNA 010453Z 21008KT 10SM FEW024 BKN034 BKN060 21/13 A2987 RMK AO2 SLP113 T02060133 $
KSNA 010520Z 0106/0206 20008KT P6SM VCSH BKN025 
     FM010800 19011G19KT 6SM -SHRA BR FEW010 BKN015 
     FM011200 22010KT P6SM VCSH SCT015 OVC045 
     FM011700 24008KT P6SM SCT020 BKN035 
     FM020100 VRB04KT P6SM BKN030
       
KSAN 010451Z 23009KT 10SM SCT023 SCT037 BKN050 20/14 A2991 RMK AO2 RAB34E43 SLP127 P0000 T02000144
KSAN 010520Z 0106/0212 22009KT P6SM BKN025 BKN045 
     FM011030 23012G20KT 6SM -SHRA BR FEW008 BKN015 
     FM011500 27011KT P6SM VCSH SCT015 BKN029 OVC050 
     FM012000 28010KT P6SM SCT030 BKN045 
     FM020100 28007KT P6SM VCSH SCT020 BKN035
       
KNID 010456Z 16015KT 10SM FEW250 16/07 A2974 RMK AO2 PK WND 15030/0409 SLP061 T01610072 $
TAF AMD KNID 0100/0123 19010G18KT 9999 BKN220 QNH2974INS 
     TEMPO 0101/0104 19018G28KT 
     BECMG 0102/0104 20018G30KT SCT250 520009 520909 QNH2970INS 
     BECMG 0108/0110 16020G30KT 9999 VCSHRA FEW065 SCT100 BKN180 640705 611706 530009 530909 QNH2968INS 
     TEMPO 0110/0118 16025G35KT 9999 -SHRA BKN050 OVC080 
     BECMG 0118/0120 21020G30KT 9999 NSW FEW060 SCT090 600000 520009 520909 QNH2978INS WND 170V250 SHRA OMTNS SW-NE T13/0108Z T19/0122Z LAST NO AMDS AFT 0105 NEXT 0305 AMD 0157
       
KNXP 010456Z AUTO 22012KT 10SM CLR 19/08 A2981 RMK AO2 SLP065 T01890083 $
TAF KNXP 0103/0203 21015G22KT 9999 FEW180 QNH2980INS 
     TEMPO 0115/0121 22010KT 
     BECMG 0201/0203 23008KT 9999 BKN200 QNH2991INS T13/0112Z T21/0122Z
       
KPSP 010453Z 31016G21KT 10SM CLR 21/11 A2975 RMK AO2 SLP073 T02060106
KPSP 010520Z 0106/0206 33012G22KT P6SM SCT200 
     FM011100 32007KT P6SM BKN200 
     FM011800 34011G20KT P6SM SCT200
       
KLAX 010453Z 20013G16KT 10SM BKN030 BKN040 OVC068 18/12 A2985 RMK AO2 RAB0356E06 SLPNO P0000 T01830122 $
KLAX 010359Z 0104/0206 22012KT P6SM BKN030 OVC040 
     FM010800 22015KT 4SM -SHRA BR SCT015 OVC025 
     FM011000 26015G22KT 5SM -RA BR SCT015 OVC025 
     FM011400 28012KT P6SM -SHRA SCT025 OVC035 
     FM011800 27015KT P6SM SCT025 OVC040 
     FM012000 26015KT P6SM SCT030 OVC050 
     FM020400 25009KT P6SM SCT025 OVC040
       
KCNO 010453Z AUTO 25007KT 10SM -RA FEW041 BKN055 OVC070 18/13 A2987 RMK AO2 RAB50 SLP112 P0000 T01780133
KSMO 010451Z AUTO 21007KT 10SM FEW045 OVC065 19/12 A2985 RMK AO2 SLP105 T01890117
KLGB 010453Z 23009KT 10SM FEW031 SCT049 OVC065 19/13 A2987 RMK AO2 RAE27 SLP113 P0006 T01890133
KLGB 010307Z 0103/0124 19004KT P6SM FEW035 OVC070 
     FM010500 20006KT P6SM BKN025 OVC050 
     FM010700 23008KT 4SM -SHRA BR SCT015 OVC025 
     FM011000 24010KT 5SM -RA BR BKN015 OVC025 
     FM011500 29010KT P6SM -SHRA SCT025 OVC035 
     FM011800 26007KT P6SM SCT030 BKN040 
     FM012100 29012KT P6SM SCT030 BKN040
       
KVNY 010451Z 20006KT 10SM SCT028 SCT040 OVC070 17/12 A2983 RMK AO2 RAB08E41 SLP096 P0000 T01670117
KVNY 010403Z 0104/0124 19008KT P6SM FEW026 BKN030 OVC060 
     FM010700 15008KT P6SM -SHRA OVC015 
     FM011000 17005KT 4SM -RA BR SCT007 OVC015 
     FM011400 25008KT P6SM -SHRA SCT025 BKN035 
     FM011700 23006KT P6SM SCT025 BKN040 
     FM012100 16006KT P6SM SCT030 OVC050
       
KBUR 010453Z 15006KT 10SM -RA FEW020 BKN028 OVC042 17/13 A2985 RMK AO2 SLP097 P0000 T01670133
KBUR 010420Z 0104/0124 18008KT P6SM -SHRA OVC022 
     FM011000 14010KT 4SM -RA BR SCT007 OVC015 
     FM011400 33010KT P6SM -SHRA SCT025 OVC035 
     FM011700 25010KT P6SM SCT025 BKN040 
     FM012100 18007KT P6SM SCT030 OVC050
       
KBFL 010514Z 31021G39KT 6SM -RA FEW011 OVC047 14/09 A2979 RMK AO2 PK WND 31039/0508 P0000 T01440094
KBFL 312326Z 0100/0124 36006KT P6SM SKC 
     FM010200 35007KT P6SM SCT060 BKN110 
     FM010500 09007KT P6SM -RA SCT030 OVC060 
     TEMPO 0105/0109 5SM RA BR BKN030 
     FM010900 09005KT 5SM -RA OVC050 
     TEMPO 0109/0113 2SM RA BR BKN030 
     FM011700 VRB04KT P6SM VCSH BKN035 OVC050
       
KPMD 010453Z 21018G24KT 10SM FEW030 BKN042 14/09 A2979 RMK AO2 SLP071 T01440094
KPMD 010120Z 0101/0124 26015G20KT P6SM SCT100 OVC250 
     FM010400 25014KT P6SM SCT040 BKN080 
     FM010900 25018KT P6SM -SHRA SCT025 OVC040 
     FM011300 26015KT P6SM VCSH SCT040 BKN080 
     FM011500 26013KT P6SM OVC050 
     FM011800 26017G23KT P6SM SCT050 BKN250 
     FM012000 26020G28KT P6SM SCT250
       
KOXR 010513Z AUTO 18012G18KT 2 1/2SM +RA FEW024 BKN029 OVC046 18/13 A2981 RMK AO2 RAB0453 P0007 T01780133
KOXR 010402Z 0104/0124 12008KT P6SM BKN060 
     FM010530 VRB03KT P6SM -SHRA BKN025 OVC035 
     FM010700 27008KT 5SM -RA BR SCT015 OVC025 
     FM011200 28009KT P6SM VCSH SCT025 OVC035 
     FM011500 32004KT P6SM SCT025 BKN050 
     FM011800 27009KT P6SM SCT030 BKN050 
     FM012000 25012KT P6SM SCT030 BKN050
       
KWJF 010456Z 25012KT 10SM SCT027 BKN033 OVC055 14/09 A2982 RMK AO2 WSHFT 0354 RAB0359E08 SLP090 P0000 T01440089
KWJF 010415Z 0104/0124 20010KT P6SM BKN025 OVC035 
     FM010900 25018G26KT P6SM -SHRA SCT025 OVC040 
     FM011300 26016G23KT P6SM VCSH SCT040 BKN080 
     FM011500 25016G23KT P6SM OVC050 
     FM011800 24018G26KT P6SM SCT050 BKN250 
     FM012000 24022G30KT P6SM SCT250
       
KCMA 010455Z AUTO 15007KT 10SM FEW030 BKN050 OVC060 18/12 A2980 RMK AO2 SLP099 T01780122
KFAT 010453Z 28008KT 4SM RA FEW043 OVC050 14/11 A2981 RMK AO2 SLP092 P0007 T01390106 $
KFAT 312326Z 0100/0124 13006KT P6SM BKN060 
     FM010100 29006KT P6SM SCT050 OVC100 
     TEMPO 0101/0103 -RA BKN050 
     FM010300 16010KT 4SM -RA SCT030 OVC060 
     TEMPO 0104/0108 2SM RA BR BKN030 
     FM010800 12007KT 4SM -RA BR OVC050 
     TEMPO 0108/0112 1 1/2SM RA BR BKN025 
     FM011200 14005KT 4SM -RA BR BKN030 OVC050 
     FM011600 VRB04KT P6SM VCSH BKN035
       
KEED 010456Z AUTO 22012KT 10SM CLR 27/11 A2971 RMK AO2 SLP034 T02670106
KEED 312339Z 0100/0124 20015KT P6SM BKN250 
     FM011800 22018G28KT P6SM FEW100 BKN250
       
KLSV 010458Z AUTO 15012KT 10SM CLR 24/02 A2971 RMK AO2 SLP043 T02440021 $
TAF AMD KLSV 0104/0207 16012KT 9999 FEW150 QNH2970INS 
     BECMG 0116/0117 22012G25KT 9999 SCT090 QNH2975INS 
     TEMPO 0117/0121 VCTS SCT040CB BKN090 
     BECMG 0203/0204 22012KT 9999 SCT090 QNH2984INS TX26/0121Z TN12/0112Z AMD 010417
       
KLAS 010456Z 19013KT 10SM SCT160 OVC250 24/01 A2968 RMK AO2 SLP031 T02390006
KLAS 010301Z 0103/0124 19011KT P6SM FEW180 BKN250 
     FM011100 20013G20KT P6SM FEW070 BKN100 
     FM011600 21022G35KT P6SM VCSH FEW030 SCT070 BKN100 
     FM012300 21014G22KT P6SM FEW070 SCT100
       
KHII 010515Z AUTO 14012G15KT 10SM CLR 26/10 A2971 RMK AO2
KIFP 010515Z AUTO 20004KT 10SM CLR 25/06 A2971 RMK AO2 PWINO